Time;durP1;ratioP1;P1;durP2;ratioP2;P2;SDS_P1;SDS_P2;PMS_P1;PMS_P2;Temp;Humidity;BMP_temperature;BMP_pressure;BME280_temperature;BME280_humidity;BME280_pressure;Samples;Min_cycle;Max_cycle;Signal;HPM_P1;HPM_P2
2022/04/30 00:00:29;;;;;;;1.65;1.50;;;21.60;40.50;;;;;;4963903;28;20035;-58
2022/04/30 00:02:57;;;;;;;1.92;1.40;;;21.60;40.40;;;;;;4963153;28;20057;-59
2022/04/30 00:05:23;;;;;;;2.40;1.35;;;21.60;40.40;;;;;;4962085;28;20058;-60
2022/04/30 00:07:48;;;;;;;1.65;1.10;;;21.60;40.40;;;;;;4965053;28;20039;-60
2022/04/30 00:10:14;;;;;;;1.40;1.30;;;21.60;40.40;;;;;;4963174;28;20039;-60
2022/04/30 00:12:39;;;;;;;4.28;1.50;;;21.50;40.40;;;;;;4963611;28;20133;-60
2022/04/30 00:15:05;;;;;;;1.63;1.25;;;21.50;40.30;;;;;;4960880;28;20034;-59
2022/04/30 00:17:31;;;;;;;2.17;1.20;;;21.50;40.30;;;;;;4965071;28;20062;-59
2022/04/30 00:19:56;;;;;;;2.08;1.52;;;21.50;40.30;;;;;;4963479;28;20503;-59
2022/04/30 00:22:22;;;;;;;2.45;1.40;;;21.50;40.30;;;;;;4964527;28;20050;-59
2022/04/30 00:24:48;;;;;;;3.25;1.50;;;21.50;40.30;;;;;;4963886;28;20035;-61
2022/04/30 00:27:14;;;;;;;2.67;1.63;;;21.50;40.30;;;;;;4964617;28;20053;-60
2022/04/30 00:29:40;;;;;;;1.67;1.42;;;21.40;40.30;;;;;;4964668;28;20047;-60
2022/04/30 00:32:05;;;;;;;1.98;1.40;;;21.40;40.20;;;;;;4964398;28;20077;-61
2022/04/30 00:34:31;;;;;;;2.45;1.48;;;21.40;40.20;;;;;;4963638;28;20065;-59
2022/04/30 00:37:02;;;;;;;2.40;1.60;;;21.40;40.20;;;;;;4964631;28;20089;-59
2022/04/30 00:39:28;;;;;;;1.83;1.38;;;21.40;40.20;;;;;;4968487;28;20049;-60
2022/04/30 00:41:54;;;;;;;3.15;1.60;;;21.40;40.20;;;;;;4966685;28;20038;-59
2022/04/30 00:44:21;;;;;;;1.95;1.70;;;21.40;40.20;;;;;;4967788;28;20042;-60
2022/04/30 00:46:46;;;;;;;1.88;1.50;;;21.40;40.10;;;;;;4966573;28;20700;-60
2022/04/30 00:49:13;;;;;;;1.98;1.75;;;21.40;40.20;;;;;;4968295;28;20153;-59
2022/04/30 00:51:39;;;;;;;1.60;1.50;;;21.40;40.10;;;;;;4967632;28;20042;-59
2022/04/30 00:54:07;;;;;;;2.63;1.40;;;21.30;40.10;;;;;;4966881;28;20145;-62
2022/04/30 00:56:43;;;;;;;2.28;1.70;;;21.30;40.00;;;;;;4965382;28;20035;-58
2022/04/30 00:59:12;;;;;;;2.42;1.60;;;21.30;40.00;;;;;;4968130;28;20145;-60
2022/04/30 01:01:37;;;;;;;3.78;2.00;;;21.30;40.00;;;;;;4964839;28;20395;-59
2022/04/30 01:04:07;;;;;;;1.73;1.63;;;21.30;40.00;;;;;;4968350;28;20046;-61
2022/04/30 01:07:07;;;;;;;1.92;1.70;;;21.30;40.00;;;;;;4965999;28;20573;-59
2022/04/30 01:09:35;;;;;;;1.90;1.80;;;21.30;39.90;;;;;;4933157;28;20380;-65
2022/04/30 01:12:08;;;;;;;1.65;1.50;;;21.30;40.00;;;;;;4964626;28;20047;-59
2022/04/30 01:14:34;;;;;;;1.95;1.63;;;21.20;39.90;;;;;;4966893;28;20049;-59
2022/04/30 01:17:05;;;;;;;2.15;1.58;;;21.20;39.90;;;;;;4967528;28;20090;-59
2022/04/30 01:19:33;;;;;;;;;;;21.20;39.90;;;;;;4967737;28;20043;-59
2022/04/30 01:22:01;;;;;;;1.85;1.73;;;21.20;39.80;;;;;;4966462;28;19922;-60
2022/04/30 01:24:28;;;;;;;1.73;1.60;;;21.20;40.00;;;;;;4964443;28;20042;-60
2022/04/30 01:27:00;;;;;;;2.47;1.67;;;21.20;40.00;;;;;;4965566;28;20046;-59
2022/04/30 01:29:30;;;;;;;2.10;1.90;;;21.10;39.80;;;;;;4967514;28;20090;-60
2022/04/30 01:37:27;;;;;;;1.77;1.55;;;21.10;39.70;;;;;;4966269;28;20137;-59
2022/04/30 01:39:59;;;;;;;2.00;1.60;;;21.10;39.70;;;;;;4965864;28;20050;-60
2022/04/30 01:42:30;;;;;;;2.80;2.00;;;21.10;39.70;;;;;;4965529;28;20074;-59
2022/04/30 01:44:57;;;;;;;1.73;1.60;;;21.10;39.60;;;;;;4967182;28;20118;-59
2022/04/30 01:47:24;;;;;;;2.67;1.70;;;21.10;39.60;;;;;;4967358;28;20105;-59
2022/04/30 01:49:50;;;;;;;1.73;1.55;;;21.10;39.60;;;;;;4964359;28;20067;-59
2022/04/30 01:52:16;;;;;;;1.83;1.50;;;21.10;39.60;;;;;;4963324;28;20078;-59
2022/04/30 01:54:42;;;;;;;1.90;1.80;;;21.10;39.60;;;;;;4965313;28;20054;-59
2022/04/30 01:57:08;;;;;;;1.98;1.65;;;21.00;39.50;;;;;;4966478;28;20043;-59
2022/04/30 01:59:34;;;;;;;2.83;1.77;;;21.00;39.50;;;;;;4967146;28;20414;-60
2022/04/30 02:02:01;;;;;;;1.58;1.45;;;21.00;39.50;;;;;;4959909;28;20050;-61
2022/04/30 02:04:28;;;;;;;1.58;1.48;;;21.00;39.50;;;;;;4963143;28;20069;-60
2022/04/30 02:06:55;;;;;;;1.73;1.63;;;21.00;39.50;;;;;;4962928;28;20489;-62
2022/04/30 02:09:22;;;;;;;1.98;1.77;;;21.00;39.40;;;;;;4964893;28;20459;-60
2022/04/30 02:11:48;;;;;;;2.88;2.00;;;21.00;39.50;;;;;;4965324;28;20049;-59
2022/04/30 02:14:17;;;;;;;2.00;1.75;;;21.00;39.50;;;;;;4963481;28;20058;-59
2022/04/30 02:16:45;;;;;;;2.20;1.77;;;20.90;39.30;;;;;;4966142;28;20039;-58
2022/04/30 02:19:11;;;;;;;2.13;1.80;;;21.00;39.40;;;;;;4963738;28;20074;-59
2022/04/30 02:21:37;;;;;;;2.10;1.83;;;20.90;39.30;;;;;;4960736;28;20046;-61
2022/04/30 02:24:03;;;;;;;2.10;2.00;;;20.90;39.30;;;;;;4964423;28;20046;-60
2022/04/30 02:26:29;;;;;;;2.55;2.05;;;20.90;39.30;;;;;;4964164;28;20050;-61
2022/04/30 02:28:57;;;;;;;1.85;1.70;;;20.90;39.30;;;;;;4966299;28;20444;-59
2022/04/30 02:31:27;;;;;;;1.92;1.75;;;20.90;39.20;;;;;;4966130;28;20109;-59
2022/04/30 02:33:56;;;;;;;2.05;1.85;;;20.90;39.30;;;;;;4965215;28;20054;-59
2022/04/30 02:36:26;;;;;;;2.72;2.13;;;20.90;39.30;;;;;;4965668;28;20047;-59
2022/04/30 02:38:56;;;;;;;2.53;1.63;;;20.90;39.20;;;;;;4965271;28;20086;-60
2022/04/30 02:41:22;;;;;;;3.03;2.35;;;20.90;39.30;;;;;;4965106;28;20035;-59
2022/04/30 02:43:52;;;;;;;1.75;1.50;;;20.90;39.30;;;;;;4964246;28;20395;-59
2022/04/30 02:46:21;;;;;;;2.00;1.80;;;20.80;39.20;;;;;;4964240;28;20050;-60
2022/04/30 02:48:47;;;;;;;1.90;1.80;;;20.80;39.20;;;;;;4963826;28;20050;-60
2022/04/30 02:51:15;;;;;;;1.95;1.77;;;20.80;39.20;;;;;;4965681;28;20053;-60
2022/04/30 02:53:41;;;;;;;1.95;1.85;;;20.80;39.20;;;;;;4965455;28;20367;-59
2022/04/30 02:56:09;;;;;;;1.77;1.67;;;20.80;39.20;;;;;;4964795;28;20149;-59
2022/04/30 03:01:20;;;;;;;2.67;1.92;;;20.80;39.20;;;;;;4965255;28;20054;-61
2022/04/30 03:03:49;;;;;;;2.17;1.90;;;20.80;39.30;;;;;;4963561;28;20047;-61
2022/04/30 03:06:17;;;;;;;2.10;1.80;;;20.80;39.20;;;;;;4965602;28;20273;-59
2022/04/30 03:08:48;;;;;;;2.22;1.70;;;20.80;39.20;;;;;;4964950;28;20046;-58
2022/04/30 03:11:13;;;;;;;1.98;1.80;;;20.80;39.20;;;;;;4964945;28;20137;-59
2022/04/30 03:13:40;;;;;;;2.10;1.90;;;20.80;39.20;;;;;;4964254;28;20475;-58
2022/04/30 03:21:44;;;;;;;2.65;2.25;;;20.70;39.20;;;;;;4964943;28;20105;-59
2022/04/30 03:24:11;;;;;;;2.35;1.92;;;20.70;39.10;;;;;;4964487;28;20059;-59
2022/04/30 03:26:37;;;;;;;2.75;1.80;;;20.70;39.10;;;;;;4964156;28;20965;-60
2022/04/30 03:29:03;;;;;;;2.20;2.00;;;20.70;39.10;;;;;;4964338;28;20054;-60
2022/04/30 03:31:30;;;;;;;2.00;1.90;;;20.70;39.10;;;;;;4963739;28;20045;-59
2022/04/30 03:33:56;;;;;;;2.22;2.03;;;20.70;39.10;;;;;;4964492;28;20058;-60
2022/04/30 03:36:21;;;;;;;2.53;1.65;;;20.60;39.00;;;;;;4964361;28;20479;-59
2022/04/30 03:38:47;;;;;;;2.42;1.85;;;20.60;39.00;;;;;;4965092;28;20046;-60
2022/04/30 03:41:15;;;;;;;2.00;1.80;;;20.70;39.10;;;;;;4964794;28;20038;-59
2022/04/30 03:43:41;;;;;;;3.03;2.05;;;20.60;39.00;;;;;;4964530;28;20100;-61
2022/04/30 03:46:06;;;;;;;2.33;2.00;;;20.60;39.00;;;;;;4962912;28;20211;-59
2022/04/30 03:48:32;;;;;;;1.90;1.80;;;20.60;39.00;;;;;;4965433;28;20030;-59
2022/04/30 03:50:58;;;;;;;1.90;1.80;;;20.60;39.00;;;;;;4955247;28;20894;-59
2022/04/30 03:53:24;;;;;;;2.22;2.05;;;20.60;39.00;;;;;;4962800;28;20053;-59
2022/04/30 03:55:49;;;;;;;2.08;1.98;;;20.60;39.10;;;;;;4959586;28;20362;-60
2022/04/30 03:58:15;;;;;;;2.22;1.98;;;20.60;39.00;;;;;;4962215;28;20113;-59
2022/04/30 04:00:41;;;;;;;1.83;1.73;;;20.60;39.00;;;;;;4958270;28;20425;-60
2022/04/30 04:03:06;;;;;;;2.20;2.00;;;20.50;39.00;;;;;;4962229;28;20038;-60
2022/04/30 04:05:33;;;;;;;2.92;2.60;;;20.50;38.90;;;;;;4960926;28;20038;-62
2022/04/30 04:07:58;;;;;;;2.65;2.15;;;20.50;38.90;;;;;;4959281;28;20057;-60
2022/04/30 04:10:25;;;;;;;2.20;2.10;;;20.50;39.00;;;;;;4963968;28;20416;-61
2022/04/30 04:12:50;;;;;;;2.92;2.20;;;20.50;39.00;;;;;;4966548;28;20061;-59
2022/04/30 04:18:00;;;;;;;2.55;1.95;;;20.50;39.00;;;;;;4968624;28;20181;-59
2022/04/30 04:20:25;;;;;;;2.72;2.10;;;20.50;39.00;;;;;;4959525;28;20051;-61
2022/04/30 04:22:55;;;;;;;2.35;2.03;;;20.50;39.00;;;;;;4962565;28;20046;-59
2022/04/30 04:28:05;;;;;;;2.10;1.90;;;20.50;39.00;;;;;;4965486;28;20109;-59
2022/04/30 04:30:32;;;;;;;2.15;1.98;;;20.50;39.00;;;;;;4967328;28;20050;-59
2022/04/30 04:32:58;;;;;;;2.38;2.00;;;20.50;39.00;;;;;;4966127;28;20154;-59
2022/04/30 04:35:25;;;;;;;1.90;1.80;;;20.50;39.80;;;;;;4967221;28;20047;-60
2022/04/30 04:37:51;;;;;;;1.88;1.65;;;20.50;39.00;;;;;;4967911;28;20455;-59
2022/04/30 04:40:18;;;;;;;1.98;1.85;;;20.40;39.00;;;;;;4967892;28;20093;-60
2022/04/30 04:42:45;;;;;;;2.10;1.90;;;20.40;39.00;;;;;;4967677;28;20062;-59
2022/04/30 04:45:11;;;;;;;3.03;2.15;;;20.50;39.00;;;;;;4968234;28;20089;-61
2022/04/30 04:47:40;;;;;;;1.85;1.75;;;20.40;39.00;;;;;;4967675;28;20407;-61
2022/04/30 04:50:12;;;;;;;3.00;2.20;;;20.50;39.10;;;;;;4968024;28;20121;-60
2022/04/30 04:52:38;;;;;;;1.83;1.70;;;20.40;39.00;;;;;;4966723;28;20049;-60
2022/04/30 04:55:04;;;;;;;2.15;1.95;;;20.40;39.00;;;;;;4966601;28;20034;-59
2022/04/30 04:57:29;;;;;;;2.10;1.90;;;20.40;39.00;;;;;;4966524;28;20089;-59
2022/04/30 04:59:55;;;;;;;2.00;1.90;;;20.40;39.00;;;;;;4966939;28;20039;-61
2022/04/30 05:02:21;;;;;;;2.17;1.90;;;20.40;39.00;;;;;;4965948;28;20027;-59
2022/04/30 05:04:46;;;;;;;2.70;2.00;;;20.40;39.10;;;;;;4967162;28;20125;-59
2022/04/30 05:07:12;;;;;;;2.75;2.17;;;20.40;39.10;;;;;;4967832;28;20066;-59
2022/04/30 05:09:38;;;;;;;2.17;1.98;;;20.40;39.10;;;;;;4967508;28;20042;-60
2022/04/30 05:12:04;;;;;;;3.30;1.92;;;20.40;39.10;;;;;;4966989;28;20031;-59
2022/04/30 05:14:34;;;;;;;2.10;1.90;;;20.40;39.10;;;;;;4966781;28;20850;-60
2022/04/30 05:17:01;;;;;;;2.10;1.90;;;20.40;39.10;;;;;;4967760;28;20035;-59
2022/04/30 05:19:26;;;;;;;2.20;2.00;;;20.40;39.10;;;;;;4967676;28;20101;-60
2022/04/30 05:21:53;;;;;;;2.40;2.20;;;20.40;39.10;;;;;;4965596;28;20073;-60
2022/04/30 05:24:18;;;;;;;2.20;1.98;;;20.40;39.20;;;;;;4967887;28;20053;-59
2022/04/30 05:26:44;;;;;;;2.17;1.98;;;20.30;39.10;;;;;;4965663;28;20482;-60
2022/04/30 05:29:09;;;;;;;2.25;1.73;;;20.40;39.10;;;;;;4966868;28;20130;-59
2022/04/30 05:31:35;;;;;;;1.70;1.60;;;20.40;39.10;;;;;;4967064;28;20065;-59
2022/04/30 05:34:00;;;;;;;1.80;1.70;;;20.40;39.20;;;;;;4967042;28;20365;-60
2022/04/30 05:36:26;;;;;;;2.30;1.83;;;20.40;39.30;;;;;;4966823;28;20390;-59
2022/04/30 05:38:51;;;;;;;2.30;2.10;;;20.40;39.20;;;;;;4966913;28;20042;-61
2022/04/30 05:41:17;;;;;;;2.58;2.15;;;20.30;39.20;;;;;;4968172;28;20046;-59
2022/04/30 05:43:46;;;;;;;1.85;1.75;;;20.30;39.20;;;;;;4965292;28;20459;-59
2022/04/30 05:46:13;;;;;;;2.90;2.20;;;20.30;39.20;;;;;;4966610;28;20123;-61
2022/04/30 05:48:39;;;;;;;1.73;1.63;;;20.30;39.20;;;;;;4967061;28;20549;-60
2022/04/30 05:51:04;;;;;;;2.20;1.98;;;20.30;39.20;;;;;;4966213;28;20145;-61
2022/04/30 05:53:30;;;;;;;2.55;1.92;;;20.30;39.30;;;;;;4966283;28;20564;-59
2022/04/30 05:55:56;;;;;;;2.28;1.90;;;20.30;39.30;;;;;;4966066;28;20447;-60
2022/04/30 05:58:21;;;;;;;2.00;1.80;;;20.30;39.30;;;;;;4966214;28;20041;-60
2022/04/30 06:00:47;;;;;;;2.47;2.00;;;20.30;39.40;;;;;;4967134;28;20446;-58
2022/04/30 06:03:12;;;;;;;2.15;1.95;;;20.30;39.40;;;;;;4965642;28;20050;-59
2022/04/30 06:05:38;;;;;;;2.15;1.67;;;20.30;39.40;;;;;;4965911;28;20046;-59
2022/04/30 06:08:05;;;;;;;2.15;1.95;;;20.30;39.50;;;;;;4966494;28;20642;-59
2022/04/30 06:10:31;;;;;;;2.35;2.15;;;20.30;39.50;;;;;;4966823;28;20046;-58
2022/04/30 06:12:57;;;;;;;1.88;1.77;;;20.30;39.40;;;;;;4966020;28;20073;-60
2022/04/30 06:15:23;;;;;;;1.88;1.77;;;20.30;39.40;;;;;;4966965;28;20604;-60
2022/04/30 06:17:48;;;;;;;2.35;2.00;;;20.30;39.50;;;;;;4967168;28;20035;-61
2022/04/30 06:20:14;;;;;;;3.63;2.17;;;20.20;39.50;;;;;;4965240;28;20078;-58
2022/04/30 06:22:40;;;;;;;2.90;2.10;;;20.30;39.50;;;;;;4965046;28;20039;-58
2022/04/30 06:25:06;;;;;;;3.50;1.80;;;20.30;39.50;;;;;;4965738;28;20083;-60
2022/04/30 06:27:32;;;;;;;2.53;1.90;;;20.30;39.50;;;;;;4962385;28;20041;-60
2022/04/30 06:29:59;;;;;;;2.58;2.05;;;20.20;39.50;;;;;;4964044;28;20034;-61
2022/04/30 06:32:25;;;;;;;2.80;1.95;;;20.20;39.50;;;;;;4965392;28;20055;-60
2022/04/30 06:34:50;;;;;;;2.22;1.85;;;20.20;39.50;;;;;;4965109;28;20090;-60
2022/04/30 06:37:17;;;;;;;2.15;1.95;;;20.20;39.50;;;;;;4966616;28;20097;-59
2022/04/30 06:39:43;;;;;;;2.30;2.10;;;20.20;39.60;;;;;;4964123;28;20038;-63
2022/04/30 06:42:09;;;;;;;2.20;1.92;;;20.20;39.60;;;;;;4965760;28;20043;-59
2022/04/30 06:44:34;;;;;;;3.50;1.90;;;20.20;39.60;;;;;;4965587;28;20098;-58
2022/04/30 06:47:00;;;;;;;2.00;1.90;;;20.20;39.70;;;;;;4964091;28;20077;-60
2022/04/30 06:49:26;;;;;;;2.20;2.00;;;20.20;39.70;;;;;;4965711;28;20081;-59
2022/04/30 06:51:51;;;;;;;2.47;1.95;;;20.20;39.80;;;;;;4966142;28;20088;-59
2022/04/30 06:57:09;;;;;;;2.33;2.08;;;20.20;39.80;;;;;;4964490;28;20552;-58
2022/04/30 06:59:37;;;;;;;2.13;1.88;;;20.20;39.90;;;;;;4964742;28;20041;-61
2022/04/30 07:02:07;;;;;;;1.65;1.50;;;20.20;39.80;;;;;;4963912;28;20038;-59
2022/04/30 07:04:33;;;;;;;2.27;1.93;;;20.20;39.80;;;;;;4964989;28;20609;-60
2022/04/30 07:06:59;;;;;;;2.83;2.00;;;20.20;39.90;;;;;;4966364;28;20316;-59
2022/04/30 07:09:26;;;;;;;2.08;1.75;;;20.20;39.90;;;;;;4964077;28;20034;-58
2022/04/30 07:11:53;;;;;;;1.92;1.83;;;20.20;39.90;;;;;;4961002;28;20114;-61
2022/04/30 07:14:18;;;;;;;2.55;1.90;;;20.20;40.00;;;;;;4959064;28;20059;-58
2022/04/30 07:16:44;;;;;;;2.28;1.80;;;20.20;40.30;;;;;;4964415;28;20809;-59
2022/04/30 07:19:10;;;;;;;2.00;1.50;;;20.20;40.40;;;;;;4964509;28;20057;-58
2022/04/30 07:21:35;;;;;;;3.78;1.77;;;20.20;40.40;;;;;;4964495;28;20034;-59
2022/04/30 07:24:01;;;;;;;3.63;2.08;;;20.20;40.60;;;;;;4965050;28;20425;-59
2022/04/30 07:26:28;;;;;;;3.75;1.85;;;20.20;40.70;;;;;;4963206;28;20055;-59
2022/04/30 07:28:54;;;;;;;2.17;1.60;;;20.30;40.70;;;;;;4962595;28;20042;-58
2022/04/30 07:31:19;;;;;;;3.25;1.70;;;20.30;40.80;;;;;;4964203;28;20597;-58
2022/04/30 07:33:46;;;;;;;6.20;1.77;;;20.30;40.80;;;;;;4960773;28;20050;-60
2022/04/30 07:36:12;;;;;;;8.13;1.95;;;20.30;41.00;;;;;;4962762;28;20058;-60
2022/04/30 07:38:39;;;;;;;5.05;2.00;;;20.30;41.20;;;;;;4961438;28;20443;-60
2022/04/30 07:41:05;;;;;;;3.83;1.80;;;20.30;41.20;;;;;;4963302;28;20114;-58
2022/04/30 07:43:31;;;;;;;3.60;1.77;;;20.30;41.30;;;;;;4964177;28;20074;-58
2022/04/30 07:45:56;;;;;;;2.80;1.70;;;20.40;41.40;;;;;;4963110;28;20542;-60
2022/04/30 07:48:22;;;;;;;2.55;1.67;;;20.30;41.40;;;;;;4962876;28;20043;-60
2022/04/30 07:50:47;;;;;;;3.60;1.90;;;20.40;41.50;;;;;;4962690;28;20042;-59
2022/04/30 07:53:15;;;;;;;3.00;1.75;;;20.40;41.70;;;;;;4962778;28;20054;-61
2022/04/30 07:55:42;;;;;;;1.98;1.77;;;20.40;41.90;;;;;;4977296;28;20879;-59
2022/04/30 07:58:08;;;;;;;3.63;1.88;;;20.40;42.00;;;;;;4962858;28;20177;-59
2022/04/30 08:00:33;;;;;;;2.35;2.08;;;20.40;42.10;;;;;;4962238;28;20121;-61
2022/04/30 08:02:59;;;;;;;4.10;2.03;;;20.40;42.20;;;;;;4963247;28;20094;-60
2022/04/30 08:05:26;;;;;;;5.43;2.00;;;20.40;42.20;;;;;;4962653;28;20051;-58
2022/04/30 08:07:52;;;;;;;2.97;1.70;;;20.40;42.20;;;;;;4963658;28;20114;-59
2022/04/30 08:10:18;;;;;;;2.92;1.70;;;20.40;42.10;;;;;;4960999;28;20129;-58
2022/04/30 08:12:44;;;;;;;3.38;1.75;;;20.40;42.10;;;;;;4962640;28;20039;-60
2022/04/30 08:15:10;;;;;;;2.10;1.90;;;20.50;42.20;;;;;;4963330;28;20312;-61
2022/04/30 08:17:38;;;;;;;2.78;1.90;;;20.40;42.20;;;;;;4963547;28;20053;-61
2022/04/30 08:20:06;;;;;;;7.47;2.05;;;20.40;42.10;;;;;;4964488;28;20385;-59
2022/04/30 08:22:31;;;;;;;2.95;1.95;;;20.50;42.30;;;;;;4962176;28;20054;-59
2022/04/30 08:24:57;;;;;;;5.35;1.80;;;20.50;42.30;;;;;;4962838;28;20751;-58
2022/04/30 08:27:22;;;;;;;4.45;1.90;;;20.50;42.40;;;;;;4962258;28;20666;-59
2022/04/30 08:29:48;;;;;;;2.33;1.75;;;20.50;42.50;;;;;;4963125;28;20322;-60
2022/04/30 08:32:15;;;;;;;3.85;1.70;;;20.50;42.70;;;;;;4963026;28;20077;-62
2022/04/30 08:34:41;;;;;;;3.35;1.50;;;20.50;42.90;;;;;;4963318;28;20046;-60
2022/04/30 08:37:06;;;;;;;3.42;2.00;;;20.50;42.90;;;;;;4961947;28;20109;-61
2022/04/30 08:39:32;;;;;;;3.30;1.92;;;20.50;42.90;;;;;;4962549;28;20438;-60
2022/04/30 08:41:58;;;;;;;2.95;1.77;;;20.50;43.00;;;;;;4963689;28;20105;-60
2022/04/30 08:44:24;;;;;;;5.18;1.80;;;20.50;42.80;;;;;;4964185;28;20042;-59
2022/04/30 08:46:50;;;;;;;4.60;1.90;;;20.50;42.70;;;;;;4964386;28;20565;-61
2022/04/30 08:49:16;;;;;;;9.80;2.00;;;20.50;42.30;;;;;;4960266;28;20099;-61
2022/04/30 08:51:42;;;;;;;5.18;1.67;;;20.50;42.10;;;;;;4963469;28;20046;-61
2022/04/30 08:54:07;;;;;;;4.18;2.10;;;20.50;42.90;;;;;;4963321;28;20069;-61
2022/04/30 08:56:36;;;;;;;3.58;1.73;;;20.40;42.10;;;;;;4961861;28;20041;-61
2022/04/30 08:59:04;;;;;;;5.30;2.00;;;20.40;42.30;;;;;;4964633;28;20038;-61
2022/04/30 09:01:32;;;;;;;1.83;1.42;;;20.40;42.40;;;;;;4960133;28;20046;-61
2022/04/30 09:03:58;;;;;;;5.05;2.00;;;20.40;42.50;;;;;;4957295;28;20169;-62
2022/04/30 09:06:26;;;;;;;2.20;1.70;;;20.40;42.70;;;;;;4966083;28;20473;-63
2022/04/30 09:08:52;;;;;;;4.43;2.00;;;20.40;42.70;;;;;;4965300;28;20038;-62
2022/04/30 09:11:27;;;;;;;6.55;1.80;;;20.50;43.10;;;;;;4964648;28;20042;-61
2022/04/30 09:13:53;;;;;;;4.05;1.52;;;20.50;42.90;;;;;;4966230;28;20344;-60
2022/04/30 09:16:23;;;;;;;3.80;2.03;;;20.50;42.60;;;;;;4963874;28;20067;-60
2022/04/30 09:18:50;;;;;;;6.17;1.90;;;20.50;42.70;;;;;;4965568;28;20035;-61
2022/04/30 09:21:17;;;;;;;6.07;2.00;;;20.40;42.30;;;;;;4965973;28;20046;-61
2022/04/30 09:23:43;;;;;;;4.82;2.58;;;20.50;42.40;;;;;;4954030;28;21071;-59
2022/04/30 09:26:10;;;;;;;6.78;2.17;;;20.40;42.30;;;;;;4963824;28;20129;-62
2022/04/30 09:28:37;;;;;;;5.78;2.17;;;20.40;42.10;;;;;;4962878;28;20078;-60
2022/04/30 09:31:13;;;;;;;4.43;2.17;;;20.40;42.30;;;;;;4964979;28;20090;-61
2022/04/30 09:33:51;;;;;;;4.07;1.95;;;20.40;42.60;;;;;;4965877;28;20065;-60
2022/04/30 09:39:17;;;;;;;3.15;2.17;;;20.40;42.80;;;;;;4952901;28;20685;-60
2022/04/30 09:41:42;;;;;;;3.78;1.70;;;20.50;43.20;;;;;;4963737;28;20042;-61
2022/04/30 09:44:10;;;;;;;3.35;2.03;;;20.50;43.10;;;;;;4963640;28;20065;-60
2022/04/30 09:46:37;;;;;;;9.77;2.20;;;20.50;43.30;;;;;;4964204;28;20062;-59
2022/04/30 09:54:40;;;;;;;5.15;1.92;;;20.60;43.70;;;;;;4959057;28;20053;-60
2022/04/30 09:57:09;;;;;;;6.40;2.15;;;20.60;43.70;;;;;;4963187;28;20038;-61
2022/04/30 09:59:40;;;;;;;6.93;2.00;;;20.60;43.60;;;;;;4962080;28;20357;-61
2022/04/30 10:02:08;;;;;;;6.70;2.00;;;20.60;43.60;;;;;;4946408;28;20831;-61
2022/04/30 10:04:35;;;;;;;3.40;2.10;;;20.60;43.30;;;;;;4965054;28;20078;-60
2022/04/30 10:07:03;;;;;;;6.75;2.40;;;20.50;43.00;;;;;;4965114;28;20046;-60
2022/04/30 10:09:34;;;;;;;2.90;2.38;;;20.50;42.70;;;;;;4964328;28;20043;-61
2022/04/30 10:12:26;;;;;;;3.25;2.22;;;20.50;42.50;;;;;;4965475;28;20549;-62
2022/04/30 10:15:15;;;;;;;2.67;2.38;;;20.50;42.40;;;;;;4958755;28;20066;-62
2022/04/30 10:17:43;;;;;;;4.57;2.28;;;20.50;42.50;;;;;;4965957;28;20057;-61
2022/04/30 10:20:17;;;;;;;4.45;2.05;;;20.50;42.80;;;;;;4964953;28;20047;-60
2022/04/30 10:22:57;;;;;;;4.72;2.97;;;20.50;42.70;;;;;;4963735;28;20046;-60
2022/04/30 10:25:35;;;;;;;5.78;2.65;;;20.50;41.10;;;;;;4957623;28;20047;-60
2022/04/30 10:28:24;;;;;;;7.38;3.72;;;20.50;41.40;;;;;;4963395;28;20125;-62
2022/04/30 10:31:01;;;;;;;4.07;3.10;;;20.50;40.70;;;;;;4963242;28;20082;-61
2022/04/30 10:33:27;;;;;;;6.32;2.80;;;20.40;41.30;;;;;;4964026;28;20447;-62
2022/04/30 10:36:07;;;;;;;6.10;3.08;;;20.40;41.30;;;;;;4960822;28;20438;-62
2022/04/30 10:38:33;;;;;;;4.90;2.97;;;20.40;41.00;;;;;;4964283;28;20051;-61
2022/04/30 10:41:01;;;;;;;5.72;2.70;;;20.50;40.80;;;;;;4961941;28;20078;-60
2022/04/30 10:43:31;;;;;;;6.22;2.63;;;20.40;40.50;;;;;;4961702;28;20114;-59
2022/04/30 10:46:01;;;;;;;6.18;2.83;;;20.40;40.60;;;;;;4964159;28;20035;-60
2022/04/30 10:48:28;;;;;;;3.00;2.70;;;20.40;40.80;;;;;;4963706;28;20050;-61
2022/04/30 10:51:12;;;;;;;4.45;2.75;;;20.40;40.90;;;;;;4964012;28;20371;-61
2022/04/30 10:53:46;;;;;;;9.02;3.05;;;20.40;40.90;;;;;;4964551;28;20677;-60
2022/04/30 10:56:13;;;;;;;3.55;2.40;;;20.40;41.20;;;;;;4963837;28;20045;-60
2022/04/30 10:58:41;;;;;;;3.78;2.70;;;20.40;41.20;;;;;;4963220;28;20042;-61
2022/04/30 11:01:25;;;;;;;6.18;2.58;;;20.40;41.20;;;;;;4960631;28;24453;-60
2022/04/30 11:03:51;;;;;;;4.93;3.20;;;20.50;41.10;;;;;;4955469;28;20053;-61
2022/04/30 11:06:25;;;;;;;7.10;3.03;;;20.40;41.10;;;;;;4961910;28;20415;-59
2022/04/30 11:09:01;;;;;;;5.47;2.83;;;20.40;41.30;;;;;;4943029;28;20978;-61
2022/04/30 11:11:28;;;;;;;5.90;2.85;;;20.40;41.50;;;;;;4941142;28;20089;-61
2022/04/30 11:14:04;;;;;;;5.88;3.10;;;20.40;41.40;;;;;;4945956;28;20053;-61
2022/04/30 11:16:35;;;;;;;5.30;2.92;;;20.40;41.90;;;;;;4944755;28;20039;-61
2022/04/30 11:19:07;;;;;;;;;;;20.40;41.50;;;;;;4945569;29;20517;-61
2022/04/30 11:21:35;;;;;;;8.07;2.85;;;20.40;41.50;;;;;;4943312;28;19922;-60
2022/04/30 11:24:01;;;;;;;5.50;2.80;;;20.30;41.50;;;;;;4943265;28;20051;-59
2022/04/30 11:26:29;;;;;;;3.33;2.53;;;20.40;41.60;;;;;;4943297;29;21976;-61
2022/04/30 11:28:54;;;;;;;6.57;2.83;;;20.40;41.60;;;;;;4943402;28;20061;-60
2022/04/30 11:31:20;;;;;;;4.57;3.00;;;20.40;41.60;;;;;;4943908;28;20047;-61
2022/04/30 11:33:46;;;;;;;9.65;3.40;;;20.40;41.70;;;;;;4945519;28;20392;-63
2022/04/30 11:36:12;;;;;;;3.60;2.70;;;20.40;41.70;;;;;;4944026;28;20039;-62
2022/04/30 11:38:39;;;;;;;3.90;2.60;;;20.30;41.90;;;;;;4944606;28;20130;-60
2022/04/30 11:41:06;;;;;;;4.30;2.63;;;20.40;42.00;;;;;;4945193;28;20158;-59
2022/04/30 11:43:32;;;;;;;6.38;3.17;;;20.40;42.10;;;;;;4943539;29;20049;-60
2022/04/30 11:45:59;;;;;;;4.22;2.90;;;20.40;42.00;;;;;;4943632;28;20050;-60
2022/04/30 11:48:27;;;;;;;7.50;3.08;;;20.40;42.00;;;;;;4939723;29;20419;-60
2022/04/30 11:50:54;;;;;;;4.53;2.72;;;20.40;42.10;;;;;;4943296;29;20085;-61
2022/04/30 11:53:20;;;;;;;5.85;3.40;;;20.40;42.00;;;;;;4945731;28;20051;-61
2022/04/30 11:55:45;;;;;;;4.70;3.03;;;20.30;41.80;;;;;;4945631;28;20447;-60
2022/04/30 11:58:11;;;;;;;7.05;3.35;;;20.30;41.70;;;;;;4944232;28;20039;-60
2022/04/30 12:00:38;;;;;;;5.22;3.05;;;20.40;41.60;;;;;;4942609;29;20459;-61
2022/04/30 12:03:03;;;;;;;4.53;3.22;;;20.40;41.70;;;;;;4942783;28;20224;-60
2022/04/30 12:05:31;;;;;;;4.07;3.22;;;20.40;41.70;;;;;;4943779;28;20716;-59
2022/04/30 12:08:01;;;;;;;5.63;2.92;;;20.30;41.70;;;;;;4944982;29;20443;-60
2022/04/30 12:10:26;;;;;;;9.20;3.00;;;20.40;41.90;;;;;;4945104;29;20043;-62
2022/04/30 12:12:53;;;;;;;6.72;3.08;;;20.40;41.90;;;;;;4925537;29;20043;-59
2022/04/30 12:15:28;;;;;;;8.63;3.13;;;20.30;41.90;;;;;;4944127;29;20399;-60
2022/04/30 12:26:36;;;;;;;11.93;3.13;;;20.30;42.50;;;;;;4943805;28;20067;-60
2022/04/30 12:29:04;;;;;;;3.75;3.10;;;20.30;42.50;;;;;;4945746;28;20046;-60
2022/04/30 12:31:30;;;;;;;4.80;2.60;;;20.40;42.50;;;;;;4944809;28;20075;-62
2022/04/30 12:33:55;;;;;;;3.38;3.00;;;20.40;42.50;;;;;;4944979;28;20135;-59
2022/04/30 12:36:23;;;;;;;8.80;3.10;;;20.40;42.60;;;;;;4948941;28;20414;-60
2022/04/30 12:38:56;;;;;;;4.05;3.03;;;20.40;42.60;;;;;;4948487;28;20043;-59
2022/04/30 12:41:23;;;;;;;5.53;3.17;;;20.40;42.50;;;;;;4948305;28;20314;-59
2022/04/30 12:43:49;;;;;;;9.45;3.50;;;20.40;42.20;;;;;;4948572;28;20511;-60
2022/04/30 12:46:22;;;;;;;3.85;3.00;;;20.30;42.60;;;;;;4947975;29;20589;-60
2022/04/30 12:48:49;;;;;;;4.85;3.00;;;20.30;42.80;;;;;;4948401;29;20135;-60
2022/04/30 12:51:16;;;;;;;5.30;3.08;;;20.40;42.90;;;;;;4947698;28;20058;-61
2022/04/30 12:53:41;;;;;;;7.15;3.00;;;20.40;43.80;;;;;;4948707;28;20146;-60
2022/04/30 12:56:07;;;;;;;4.22;3.05;;;20.40;44.30;;;;;;4947086;29;20194;-60
2022/04/30 12:58:34;;;;;;;5.00;3.17;;;20.40;44.40;;;;;;4949690;29;20039;-61
2022/04/30 13:00:59;;;;;;;4.28;3.00;;;20.40;44.90;;;;;;4948470;28;20027;-60
2022/04/30 13:03:26;;;;;;;5.18;3.33;;;20.40;45.20;;;;;;4947227;29;20053;-60
2022/04/30 13:05:51;;;;;;;5.53;3.58;;;20.40;45.50;;;;;;4948187;28;20047;-61
2022/04/30 13:08:17;;;;;;;4.82;3.20;;;20.40;45.80;;;;;;4947727;28;20043;-62
2022/04/30 13:13:34;;;;;;;5.53;3.10;;;20.40;45.60;;;;;;4947385;28;20142;-60
2022/04/30 13:16:08;;;;;;;4.90;3.03;;;20.40;45.70;;;;;;4947436;29;20036;-59
2022/04/30 13:18:34;;;;;;;3.63;3.00;;;20.40;46.10;;;;;;4946763;29;20071;-60
2022/04/30 13:21:01;;;;;;;6.40;3.03;;;20.40;46.50;;;;;;4949056;28;20027;-60
2022/04/30 13:23:27;;;;;;;4.60;3.15;;;20.40;46.80;;;;;;4946012;28;20087;-60
2022/04/30 13:25:52;;;;;;;3.30;2.80;;;20.40;47.10;;;;;;4947364;29;20472;-61
2022/04/30 13:28:18;;;;;;;4.40;3.20;;;20.40;47.30;;;;;;4947381;28;20038;-59
2022/04/30 13:30:43;;;;;;;3.28;2.90;;;20.40;47.30;;;;;;4946311;29;20051;-61